Time;durP1;ratioP1;P1;durP2;ratioP2;P2;SDS_P1;SDS_P2;PMS_P1;PMS_P2;Temp;Humidity;BMP_temperature;BMP_pressure;BME280_temperature;BME280_humidity;BME280_pressure;Samples;Min_cycle;Max_cycle;Signal;HPM_P1;HPM_P2
2022/05/18 00:00:28;;;;;;;7.93;3.88;;;16.00;99.90;;;;;;5030439;28;20395;-72
2022/05/18 00:03:05;;;;;;;9.07;5.25;;;16.00;99.90;;;;;;5032497;28;20043;-72
2022/05/18 00:05:37;;;;;;;6.95;3.70;;;16.10;99.90;;;;;;5035571;28;20060;-73
2022/05/18 00:08:06;;;;;;;6.80;4.20;;;16.10;99.90;;;;;;5031203;28;20033;-73
2022/05/18 00:10:36;;;;;;;6.22;3.95;;;16.10;99.90;;;;;;5034770;28;20211;-72
2022/05/18 00:13:04;;;;;;;5.60;3.85;;;16.00;99.90;;;;;;5034950;28;20487;-72
2022/05/18 00:15:31;;;;;;;8.05;4.63;;;16.00;99.90;;;;;;5049595;28;20057;-72
2022/05/18 00:17:58;;;;;;;8.02;4.10;;;16.10;99.90;;;;;;5018939;28;20325;-73
2022/05/18 00:20:27;;;;;;;6.68;4.68;;;16.00;99.90;;;;;;5033256;28;20511;-72
2022/05/18 00:22:57;;;;;;;6.78;4.90;;;16.00;99.90;;;;;;5033778;28;20090;-72
2022/05/18 00:25:31;;;;;;;7.70;4.80;;;16.10;99.90;;;;;;5033941;28;20048;-73
2022/05/18 00:27:58;;;;;;;9.40;4.45;;;16.10;99.90;;;;;;5030106;28;20045;-72
2022/05/18 00:30:27;;;;;;;5.70;4.10;;;16.10;99.90;;;;;;5047041;28;20543;-73
2022/05/18 00:32:55;;;;;;;7.93;4.22;;;16.10;99.90;;;;;;5032826;28;20523;-72
2022/05/18 00:35:25;;;;;;;9.65;4.53;;;16.00;99.90;;;;;;5033722;28;20126;-72
2022/05/18 00:37:52;;;;;;;10.00;4.60;;;16.10;99.90;;;;;;5035573;28;20691;-72
2022/05/18 00:40:20;;;;;;;10.35;4.60;;;15.90;99.90;;;;;;5033355;28;20048;-72
2022/05/18 00:42:47;;;;;;;6.07;3.67;;;15.90;99.90;;;;;;5049215;28;20079;-72
2022/05/18 00:45:15;;;;;;;8.48;4.57;;;16.00;99.90;;;;;;5049261;28;20143;-72
2022/05/18 00:47:43;;;;;;;6.90;3.60;;;16.10;99.90;;;;;;5016546;28;20045;-72
2022/05/18 00:50:20;;;;;;;4.65;3.85;;;16.00;99.90;;;;;;5034383;28;20056;-72
2022/05/18 00:53:10;;;;;;;5.68;4.57;;;16.00;99.90;;;;;;5048572;28;20102;-72
2022/05/18 00:55:41;;;;;;;4.80;3.80;;;16.00;99.90;;;;;;5048931;28;20083;-73
2022/05/18 00:58:23;;;;;;;6.13;4.18;;;16.00;99.90;;;;;;5034639;28;20098;-73
2022/05/18 01:00:51;;;;;;;8.90;4.32;;;16.00;99.90;;;;;;5047089;28;20136;-72
2022/05/18 01:03:25;;;;;;;9.57;4.40;;;15.90;99.90;;;;;;5035829;28;20426;-73
2022/05/18 01:06:29;;;;;;;6.68;4.32;;;15.70;99.90;;;;;;5035631;28;20452;-73
2022/05/18 01:09:00;;;;;;;9.63;4.65;;;15.90;99.90;;;;;;5032653;28;20068;-73
2022/05/18 01:11:27;;;;;;;7.65;4.55;;;15.80;99.90;;;;;;5037173;28;20051;-73
2022/05/18 01:13:55;;;;;;;8.07;4.30;;;15.80;99.90;;;;;;5035987;28;20526;-72
2022/05/18 01:16:22;;;;;;;7.70;4.32;;;15.70;99.90;;;;;;5044891;28;20132;-74
2022/05/18 01:18:52;;;;;;;8.45;4.00;;;15.60;99.90;;;;;;5020064;28;20114;-73
2022/05/18 01:21:19;;;;;;;5.47;4.18;;;15.50;99.90;;;;;;5064907;28;20491;-73
2022/05/18 01:24:09;;;;;;;7.00;4.32;;;15.80;99.90;;;;;;5039312;28;20051;-72
2022/05/18 01:26:42;;;;;;;6.75;3.60;;;15.80;99.90;;;;;;5035486;28;20076;-73
2022/05/18 01:29:10;;;;;;;7.63;3.80;;;15.90;99.90;;;;;;5039317;28;20043;-72
2022/05/18 01:31:48;;;;;;;5.55;4.03;;;15.90;99.90;;;;;;5036853;28;20064;-72
2022/05/18 01:34:19;;;;;;;4.93;3.25;;;15.90;99.90;;;;;;5038195;28;20045;-72
2022/05/18 01:36:47;;;;;;;5.10;3.38;;;15.70;99.90;;;;;;5035779;28;20088;-72
2022/05/18 01:39:22;;;;;;;6.38;3.42;;;15.70;99.90;;;;;;5035504;28;20037;-72
2022/05/18 01:42:01;;;;;;;5.15;3.67;;;15.70;99.90;;;;;;5040542;28;20052;-73
2022/05/18 01:44:28;;;;;;;8.95;3.95;;;15.80;99.90;;;;;;5037518;28;20045;-73
2022/05/18 01:46:55;;;;;;;7.13;3.90;;;15.50;99.90;;;;;;5066101;28;20037;-72
2022/05/18 01:49:22;;;;;;;8.15;3.53;;;15.50;99.90;;;;;;5037132;28;20051;-73
2022/05/18 01:51:53;;;;;;;6.47;3.42;;;15.50;99.90;;;;;;5037425;28;20421;-73
2022/05/18 01:54:20;;;;;;;6.10;3.25;;;15.40;99.90;;;;;;5037590;28;20063;-72
2022/05/18 01:56:47;;;;;;;6.05;2.85;;;15.50;99.90;;;;;;5038956;28;20415;-73
2022/05/18 01:59:14;;;;;;;5.45;3.58;;;15.50;99.90;;;;;;5036334;28;20041;-72
2022/05/18 02:01:44;;;;;;;6.07;3.42;;;15.50;99.90;;;;;;5036517;28;20068;-72
2022/05/18 02:04:13;;;;;;;8.38;3.15;;;15.50;99.90;;;;;;5036064;28;20045;-72
2022/05/18 02:06:40;;;;;;;5.80;3.75;;;15.50;99.90;;;;;;5033662;28;22161;-73
2022/05/18 02:09:07;;;;;;;7.55;3.38;;;15.50;99.90;;;;;;5036777;28;20131;-72
2022/05/18 02:11:36;;;;;;;5.70;3.00;;;15.40;99.90;;;;;;5036159;28;20427;-72
2022/05/18 02:14:03;;;;;;;5.50;3.53;;;15.30;99.90;;;;;;5036143;28;20041;-72
2022/05/18 02:16:31;;;;;;;15.98;4.40;;;15.30;99.90;;;;;;5068499;28;20045;-72
2022/05/18 02:18:58;;;;;;;4.72;3.38;;;15.30;99.90;;;;;;5065240;28;20642;-72
2022/05/18 02:21:25;;;;;;;6.28;3.20;;;15.30;99.90;;;;;;5035321;28;20044;-72
2022/05/18 02:23:52;;;;;;;5.07;3.22;;;15.10;99.90;;;;;;5037655;28;20095;-72
2022/05/18 02:26:21;;;;;;;8.63;3.75;;;14.90;99.90;;;;;;5039123;28;20601;-73
2022/05/18 02:28:48;;;;;;;6.78;3.67;;;14.90;99.90;;;;;;5037919;28;20033;-72
2022/05/18 02:31:16;;;;;;;5.78;3.10;;;14.90;99.90;;;;;;5037129;28;20041;-74
2022/05/18 02:33:43;;;;;;;5.25;3.33;;;14.90;99.90;;;;;;5034692;28;20041;-72
2022/05/18 02:36:12;;;;;;;6.82;2.88;;;15.00;99.90;;;;;;5038228;28;20048;-72
2022/05/18 02:38:41;;;;;;;4.50;2.90;;;14.90;99.90;;;;;;5054063;28;20563;-72
2022/05/18 02:41:08;;;;;;;4.60;3.10;;;14.80;99.90;;;;;;5036290;28;20404;-72
2022/05/18 02:43:38;;;;;;;5.88;3.17;;;14.80;99.90;;;;;;5036894;28;20488;-72
2022/05/18 02:46:14;;;;;;;7.20;3.33;;;15.00;99.90;;;;;;5032906;28;20036;-73
2022/05/18 02:48:42;;;;;;;3.40;2.75;;;15.10;99.90;;;;;;5034883;28;20041;-73
2022/05/18 02:51:11;;;;;;;4.13;2.40;;;15.20;99.90;;;;;;5038518;28;20057;-73
2022/05/18 02:53:38;;;;;;;3.35;2.33;;;15.00;99.90;;;;;;5019152;28;20592;-72
2022/05/18 02:56:07;;;;;;;3.90;2.45;;;14.90;99.90;;;;;;5052376;28;20041;-72
2022/05/18 02:58:37;;;;;;;6.03;3.47;;;15.00;99.90;;;;;;5067576;28;20041;-72
2022/05/18 03:01:06;;;;;;;4.03;2.85;;;15.20;99.90;;;;;;5034574;28;20120;-72
2022/05/18 03:03:34;;;;;;;6.32;3.25;;;15.20;99.90;;;;;;5038322;28;20676;-73
2022/05/18 03:06:03;;;;;;;5.75;3.08;;;15.20;99.90;;;;;;5034799;28;20403;-72
2022/05/18 03:08:32;;;;;;;6.18;3.47;;;15.20;99.90;;;;;;5034980;28;20041;-72
2022/05/18 03:11:00;;;;;;;6.57;3.00;;;15.20;99.90;;;;;;5062762;28;20057;-72
2022/05/18 03:13:28;;;;;;;5.90;3.38;;;15.20;99.90;;;;;;5033802;28;20064;-72
2022/05/18 03:15:55;;;;;;;6.97;3.10;;;15.10;99.90;;;;;;5037181;28;20495;-72
2022/05/18 03:18:23;;;;;;;4.63;3.22;;;15.10;99.90;;;;;;5037139;28;20043;-72
2022/05/18 03:23:37;;;;;;;6.53;3.67;;;15.10;99.90;;;;;;5036712;28;20120;-72
2022/05/18 03:26:05;;;;;;;7.95;3.78;;;15.20;99.90;;;;;;5035903;28;20476;-73
2022/05/18 03:28:33;;;;;;;6.03;3.92;;;15.10;99.90;;;;;;5034625;28;20064;-72
2022/05/18 03:31:01;;;;;;;6.10;3.45;;;15.10;99.90;;;;;;5054074;28;20045;-72
2022/05/18 03:33:28;;;;;;;8.50;4.40;;;15.10;99.90;;;;;;5037214;28;20044;-72
2022/05/18 03:35:56;;;;;;;6.57;4.18;;;15.10;99.90;;;;;;5034326;28;20125;-72
2022/05/18 03:38:23;;;;;;;8.13;3.63;;;15.20;99.90;;;;;;5033712;28;20051;-72
2022/05/18 03:40:51;;;;;;;8.25;3.95;;;15.10;99.90;;;;;;5052306;28;20041;-72
2022/05/18 03:43:19;;;;;;;7.55;4.68;;;15.10;99.90;;;;;;5036906;28;20045;-72
2022/05/18 03:45:47;;;;;;;6.68;4.45;;;15.00;99.90;;;;;;5034018;28;20522;-72
2022/05/18 03:48:15;;;;;;;7.70;4.57;;;15.10;99.90;;;;;;5038115;28;20037;-73
2022/05/18 03:50:45;;;;;;;7.88;4.00;;;15.00;99.90;;;;;;5033083;28;20041;-72
2022/05/18 03:53:13;;;;;;;6.45;4.10;;;15.10;99.90;;;;;;5050085;28;20045;-72
2022/05/18 03:55:42;;;;;;;7.72;4.22;;;15.10;99.90;;;;;;5035073;28;20393;-73
2022/05/18 03:58:09;;;;;;;8.95;4.47;;;15.20;99.90;;;;;;5051453;28;20051;-72
2022/05/18 04:00:37;;;;;;;7.70;3.72;;;15.20;99.90;;;;;;5034658;28;20033;-73
2022/05/18 04:03:05;;;;;;;4.70;3.63;;;15.20;99.90;;;;;;5030088;28;20508;-72
2022/05/18 04:05:32;;;;;;;6.45;3.80;;;15.20;99.90;;;;;;5036828;28;20060;-72
2022/05/18 04:08:00;;;;;;;6.13;4.03;;;15.20;99.90;;;;;;5034058;28;20503;-72
2022/05/18 04:10:27;;;;;;;9.32;4.47;;;15.30;99.90;;;;;;5034993;28;20036;-72
2022/05/18 04:12:54;;;;;;;6.07;3.70;;;15.30;99.90;;;;;;5034758;28;20059;-72
2022/05/18 04:15:21;;;;;;;5.13;3.70;;;15.30;99.90;;;;;;5037157;28;20053;-72
2022/05/18 04:17:49;;;;;;;7.88;3.67;;;15.30;99.90;;;;;;5027005;28;20452;-72
2022/05/18 04:20:19;;;;;;;6.07;3.60;;;15.30;99.90;;;;;;5035866;28;20518;-72
2022/05/18 04:22:47;;;;;;;6.18;4.07;;;15.30;99.90;;;;;;5029653;28;20045;-72
2022/05/18 04:25:18;;;;;;;7.78;4.22;;;15.30;99.90;;;;;;5036289;28;20068;-72
2022/05/18 04:27:49;;;;;;;6.67;3.80;;;15.40;99.90;;;;;;5034907;28;20142;-73
2022/05/18 04:30:18;;;;;;;8.68;4.75;;;15.40;99.90;;;;;;5034565;28;20041;-72
2022/05/18 04:32:47;;;;;;;7.32;4.22;;;15.50;99.90;;;;;;5034352;28;20052;-72
2022/05/18 04:35:16;;;;;;;9.13;3.92;;;15.40;99.90;;;;;;5031909;28;20048;-73
2022/05/18 04:37:44;;;;;;;6.75;4.47;;;15.40;99.90;;;;;;5035714;28;20048;-73
2022/05/18 04:40:12;;;;;;;6.28;3.05;;;15.40;99.90;;;;;;5036374;28;20167;-72
2022/05/18 04:42:39;;;;;;;4.47;2.58;;;15.40;98.30;;;;;;5032522;28;20063;-72
2022/05/18 04:45:10;;;;;;;3.70;2.15;;;15.40;96.90;;;;;;5037120;28;20447;-73
2022/05/18 04:47:37;;;;;;;3.90;1.80;;;15.40;96.40;;;;;;5035762;28;20162;-73
2022/05/18 04:50:05;;;;;;;4.30;1.63;;;15.50;96.20;;;;;;5067075;28;20538;-73
2022/05/18 04:52:33;;;;;;;3.75;1.85;;;15.50;95.30;;;;;;5039893;28;20037;-73
2022/05/18 04:55:00;;;;;;;2.08;1.08;;;15.60;97.40;;;;;;5037864;28;20048;-73
2022/05/18 04:57:27;;;;;;;2.78;1.33;;;15.50;95.10;;;;;;5067092;28;20407;-73
2022/05/18 04:59:54;;;;;;;3.05;0.90;;;15.30;95.00;;;;;;5037579;28;22416;-72
2022/05/18 05:02:21;;;;;;;1.60;0.90;;;15.20;93.50;;;;;;5000109;28;20548;-73
2022/05/18 05:04:48;;;;;;;6.05;0.93;;;15.30;92.70;;;;;;4997297;28;20156;-73
2022/05/18 05:07:16;;;;;;;3.10;0.77;;;15.20;93.00;;;;;;5013262;28;20057;-72
2022/05/18 05:09:43;;;;;;;3.30;0.93;;;15.30;93.30;;;;;;5006135;28;20041;-73
2022/05/18 05:12:10;;;;;;;3.83;0.90;;;15.20;91.90;;;;;;4995335;28;20045;-72
2022/05/18 05:14:39;;;;;;;3.35;1.20;;;15.20;91.30;;;;;;4991974;28;20127;-73
2022/05/18 05:17:06;;;;;;;4.22;1.05;;;15.40;92.50;;;;;;4996745;28;20076;-73
2022/05/18 05:19:35;;;;;;;3.75;1.08;;;15.40;91.70;;;;;;4996170;28;20500;-74
2022/05/18 05:22:03;;;;;;;4.65;1.70;;;15.30;91.20;;;;;;4999189;28;20385;-75
2022/05/18 05:24:30;;;;;;;3.70;0.90;;;15.10;90.50;;;;;;5002792;28;20085;-73
2022/05/18 05:26:58;;;;;;;2.83;0.90;;;15.10;90.90;;;;;;5009008;28;20048;-73
2022/05/18 05:29:25;;;;;;;3.50;0.90;;;15.10;90.70;;;;;;5011935;28;20048;-73
2022/05/18 05:31:52;;;;;;;1.58;0.57;;;15.30;88.30;;;;;;4995222;28;20049;-74
2022/05/18 05:34:19;;;;;;;1.85;0.52;;;15.60;85.10;;;;;;4996701;28;20536;-74
2022/05/18 05:36:47;;;;;;;4.72;1.20;;;15.80;85.00;;;;;;4980523;28;20052;-73
2022/05/18 05:39:14;;;;;;;2.53;0.70;;;16.10;83.40;;;;;;4975858;28;20702;-74
2022/05/18 05:41:42;;;;;;;2.10;0.60;;;16.20;82.30;;;;;;4996226;28;20427;-72
2022/05/18 05:44:10;;;;;;;2.70;0.77;;;16.10;79.10;;;;;;4993636;28;22273;-72
2022/05/18 05:46:37;;;;;;;2.97;0.80;;;16.20;78.90;;;;;;4996629;28;20041;-74
2022/05/18 05:49:05;;;;;;;5.25;0.93;;;16.40;77.20;;;;;;4996135;28;20194;-73
2022/05/18 05:51:32;;;;;;;2.33;0.60;;;16.50;78.70;;;;;;4997516;28;20049;-72
2022/05/18 05:53:59;;;;;;;3.03;0.85;;;16.60;78.50;;;;;;4992467;28;20071;-72
2022/05/18 05:56:26;;;;;;;2.97;0.50;;;16.50;72.80;;;;;;4996407;28;20045;-74
2022/05/18 05:58:53;;;;;;;2.25;0.40;;;16.70;74.70;;;;;;4991509;28;20057;-73
2022/05/18 06:01:20;;;;;;;2.58;0.40;;;16.60;70.70;;;;;;4990661;28;20045;-73
2022/05/18 06:03:48;;;;;;;1.17;0.30;;;16.10;66.20;;;;;;4997838;28;20627;-74
2022/05/18 06:06:15;;;;;;;1.95;0.28;;;16.40;66.20;;;;;;5012574;28;20190;-73
2022/05/18 06:08:42;;;;;;;1.58;0.40;;;16.50;61.90;;;;;;4994457;28;20056;-74
2022/05/18 06:11:10;;;;;;;0.73;0.22;;;16.60;63.80;;;;;;5012142;28;20119;-73
2022/05/18 06:13:38;;;;;;;2.40;0.52;;;16.70;61.00;;;;;;5012474;28;20048;-73
2022/05/18 06:16:07;;;;;;;0.80;0.20;;;16.90;62.60;;;;;;4989340;28;21609;-72
2022/05/18 06:18:35;;;;;;;0.68;0.10;;;17.10;62.40;;;;;;4995697;28;20713;-73
2022/05/18 06:21:03;;;;;;;2.08;0.20;;;17.30;62.80;;;;;;4995073;28;20044;-71
2022/05/18 06:23:30;;;;;;;3.60;0.20;;;17.40;57.90;;;;;;4995240;28;20040;-74
2022/05/18 06:26:02;;;;;;;1.08;0.30;;;17.20;59.20;;;;;;4994683;28;20041;-74
2022/05/18 06:28:29;;;;;;;3.15;0.60;;;16.80;56.40;;;;;;5010633;28;20060;-74
2022/05/18 06:30:56;;;;;;;2.35;0.20;;;16.90;57.00;;;;;;5010338;28;20049;-72
2022/05/18 06:33:24;;;;;;;2.58;0.63;;;17.10;59.90;;;;;;4995806;28;20049;-74
2022/05/18 06:35:51;;;;;;;1.63;0.13;;;16.90;55.10;;;;;;4993296;28;20049;-73
2022/05/18 06:38:19;;;;;;;3.92;0.22;;;17.10;55.10;;;;;;5011566;28;20056;-73
2022/05/18 06:43:32;;;;;;;1.95;0.22;;;17.20;55.40;;;;;;4991255;28;20154;-73
2022/05/18 06:46:01;;;;;;;4.40;0.60;;;17.60;56.30;;;;;;4990338;28;20037;-72
2022/05/18 06:48:29;;;;;;;0.88;0.30;;;17.80;57.90;;;;;;4993445;28;20052;-73
2022/05/18 06:51:13;;;;;;;1.10;0.20;;;17.70;55.30;;;;;;4994712;28;20049;-74
2022/05/18 06:53:41;;;;;;;1.38;0.20;;;17.30;53.50;;;;;;4990099;28;20049;-73
2022/05/18 06:56:08;;;;;;;2.40;0.20;;;17.50;54.40;;;;;;4996255;28;20044;-74
2022/05/18 06:58:35;;;;;;;6.05;0.40;;;17.50;57.30;;;;;;4990108;28;20045;-73
2022/05/18 07:01:06;;;;;;;1.42;0.10;;;17.80;54.40;;;;;;4990166;28;20041;-75
2022/05/18 07:03:34;;;;;;;1.48;0.20;;;17.60;54.00;;;;;;4993839;28;20053;-72
2022/05/18 07:06:03;;;;;;;0.95;0.10;;;17.70;54.00;;;;;;5025842;28;22110;-73
2022/05/18 07:08:30;;;;;;;0.55;0.10;;;18.10;55.40;;;;;;4993766;28;20041;-72
2022/05/18 07:10:57;;;;;;;1.42;0.20;;;17.80;52.30;;;;;;4995129;28;22942;-73
2022/05/18 07:13:25;;;;;;;2.85;0.20;;;17.80;55.50;;;;;;5001148;28;20053;-73
2022/05/18 07:15:52;;;;;;;3.63;0.20;;;17.80;52.10;;;;;;5011541;28;20052;-72
2022/05/18 07:18:20;;;;;;;4.20;0.40;;;17.70;51.00;;;;;;5007301;28;20557;-73
2022/05/18 07:20:49;;;;;;;2.63;0.32;;;17.70;52.00;;;;;;4995482;28;20091;-73
2022/05/18 07:23:17;;;;;;;3.42;0.22;;;17.90;52.20;;;;;;4994543;28;20049;-72
2022/05/18 07:25:44;;;;;;;2.97;0.20;;;17.70;50.80;;;;;;4997748;28;20701;-73
2022/05/18 07:28:11;;;;;;;1.58;0.20;;;17.70;51.20;;;;;;4995177;28;20122;-73
2022/05/18 07:30:48;;;;;;;5.20;0.20;;;17.90;52.50;;;;;;4996999;28;20045;-73
2022/05/18 07:33:16;;;;;;;2.45;0.15;;;17.50;51.40;;;;;;4995393;28;20053;-72
2022/05/18 07:35:44;;;;;;;3.60;0.20;;;17.50;53.10;;;;;;4994552;28;20053;-73
2022/05/18 07:38:12;;;;;;;0.95;0.17;;;17.10;52.50;;;;;;4993883;28;20192;-73
2022/05/18 07:40:59;;;;;;;5.38;0.28;;;17.30;51.80;;;;;;4995460;28;20540;-72
2022/05/18 07:43:27;;;;;;;1.35;0.20;;;17.90;54.10;;;;;;4995566;28;20071;-73
2022/05/18 07:45:55;;;;;;;2.00;0.15;;;18.00;49.90;;;;;;5024291;28;20176;-74
2022/05/18 07:48:23;;;;;;;0.73;0.20;;;18.10;50.60;;;;;;4991471;28;20273;-73
2022/05/18 07:50:51;;;;;;;2.45;0.10;;;18.30;51.30;;;;;;4995989;28;20505;-73
2022/05/18 07:53:18;;;;;;;3.22;0.20;;;18.30;49.70;;;;;;5002389;28;20055;-72
2022/05/18 07:55:45;;;;;;;2.15;0.17;;;18.50;49.60;;;;;;4996421;28;20045;-72
2022/05/18 07:58:14;;;;;;;3.00;0.30;;;18.50;49.90;;;;;;4992400;28;22132;-73
2022/05/18 08:00:42;;;;;;;3.22;0.20;;;18.70;51.90;;;;;;4985581;28;20060;-73
2022/05/18 08:03:09;;;;;;;6.13;0.20;;;18.60;49.60;;;;;;5022620;28;20794;-72
2022/05/18 08:05:37;;;;;;;2.10;0.80;;;18.60;49.90;;;;;;4992551;28;20056;-73
2022/05/18 08:08:12;;;;;;;1.20;0.20;;;18.70;50.00;;;;;;5008880;28;20066;-73
2022/05/18 08:16:14;;;;;;;1.67;0.20;;;18.70;50.20;;;;;;4991646;28;20571;-73
2022/05/18 08:18:42;;;;;;;2.58;0.63;;;18.80;47.80;;;;;;4992873;28;20055;-72
2022/05/18 08:21:09;;;;;;;2.05;0.20;;;18.50;48.20;;;;;;4992504;28;20053;-73
2022/05/18 08:23:37;;;;;;;2.05;0.15;;;18.80;50.00;;;;;;4995585;28;20037;-74
2022/05/18 08:26:04;;;;;;;1.67;0.30;;;18.90;50.30;;;;;;5002069;28;22152;-73
2022/05/18 08:28:33;;;;;;;3.42;0.20;;;19.00;49.50;;;;;;4996161;28;20127;-73
2022/05/18 08:31:01;;;;;;;2.63;0.40;;;19.10;49.10;;;;;;5007791;28;21919;-73
2022/05/18 08:33:31;;;;;;;2.25;0.13;;;19.30;51.60;;;;;;4991543;28;20053;-73
2022/05/18 08:36:01;;;;;;;2.35;0.20;;;19.30;49.10;;;;;;4994203;28;20045;-72
2022/05/18 08:38:28;;;;;;;1.98;0.20;;;19.20;49.20;;;;;;4994828;28;20049;-73
2022/05/18 08:41:19;;;;;;;1.88;0.30;;;19.00;48.10;;;;;;4991864;28;20627;-73
2022/05/18 08:43:51;;;;;;;2.28;0.20;;;19.00;48.10;;;;;;4994394;28;20048;-72
2022/05/18 08:46:43;;;;;;;3.72;0.22;;;18.80;48.70;;;;;;4993620;28;22064;-73
2022/05/18 08:49:13;;;;;;;3.78;0.20;;;19.00;50.30;;;;;;4992864;28;20749;-73
2022/05/18 08:51:51;;;;;;;3.38;0.30;;;19.10;50.70;;;;;;5009876;28;20049;-73
2022/05/18 08:54:24;;;;;;;2.88;0.20;;;19.10;49.20;;;;;;4990806;28;20431;-72
2022/05/18 08:56:55;;;;;;;1.98;0.22;;;19.30;49.80;;;;;;4991171;28;20532;-74
2022/05/18 08:59:31;;;;;;;0.85;0.20;;;19.30;49.50;;;;;;4976077;28;20057;-73
2022/05/18 09:02:03;;;;;;;6.78;1.20;;;19.20;47.80;;;;;;5008842;28;20065;-72
2022/05/18 09:05:00;;;;;;;0.98;0.28;;;19.10;50.30;;;;;;5009408;28;21986;-72
2022/05/18 09:08:16;;;;;;;2.83;0.55;;;19.40;51.30;;;;;;4989976;28;22120;-73
2022/05/18 09:11:03;;;;;;;1.23;0.30;;;19.40;52.60;;;;;;4969171;28;20666;-73
2022/05/18 09:13:38;;;;;;;3.95;0.30;;;19.30;48.40;;;;;;4991599;28;20965;-73
2022/05/18 09:16:44;;;;;;;1.92;0.43;;;19.40;50.00;;;;;;4993406;28;20049;-73
2022/05/18 09:19:37;;;;;;;1.20;0.20;;;19.30;50.50;;;;;;4939265;28;20061;-73
2022/05/18 09:22:22;;;;;;;1.67;0.40;;;19.40;50.10;;;;;;4976762;28;20721;-72
2022/05/18 09:25:08;;;;;;;2.58;0.70;;;19.50;51.60;;;;;;5008722;28;20045;-74
2022/05/18 09:27:42;;;;;;;3.90;0.32;;;19.40;50.70;;;;;;4993076;28;20045;-74
2022/05/18 09:30:19;;;;;;;1.80;0.20;;;19.30;50.20;;;;;;4993419;28;20049;-73
2022/05/18 09:33:18;;;;;;;1.08;0.30;;;19.40;50.90;;;;;;4989991;28;20826;-73
2022/05/18 09:36:03;;;;;;;1.48;0.30;;;19.30;50.30;;;;;;4998163;28;20095;-72
2022/05/18 09:39:04;;;;;;;4.40;0.30;;;19.20;48.90;;;;;;4997184;28;20711;-72
2022/05/18 09:41:38;;;;;;;2.42;0.30;;;19.30;49.00;;;;;;4998165;28;20510;-72
2022/05/18 09:44:29;;;;;;;1.60;0.55;;;19.30;50.60;;;;;;4999745;28;20052;-73
2022/05/18 09:46:59;;;;;;;0.90;0.38;;;19.20;50.40;;;;;;4997657;28;20142;-74
2022/05/18 09:49:37;;;;;;;2.42;0.30;;;19.30;50.70;;;;;;5010953;28;20119;-74
2022/05/18 09:52:05;;;;;;;2.65;0.30;;;19.40;48.90;;;;;;4998063;28;20641;-74
2022/05/18 09:54:34;;;;;;;0.95;0.30;;;19.40;48.90;;;;;;4994074;28;20056;-73
2022/05/18 09:57:18;;;;;;;2.88;0.32;;;19.30;48.60;;;;;;5012212;28;20460;-72
2022/05/18 09:59:51;;;;;;;0.38;0.10;;;19.50;49.50;;;;;;4991902;28;20099;-72
2022/05/18 10:07:58;;;;;;;2.85;0.30;;;19.40;47.00;;;;;;5014536;28;20076;-74
2022/05/18 10:10:33;;;;;;;3.17;0.20;;;19.40;45.30;;;;;;5014772;28;20049;-73
2022/05/18 10:13:12;;;;;;;3.30;0.85;;;19.50;44.30;;;;;;5019021;28;22083;-73
2022/05/18 10:16:06;;;;;;;0.47;0.20;;;19.50;46.00;;;;;;4998921;28;20509;-73
2022/05/18 10:18:45;;;;;;;2.67;0.20;;;19.50;46.00;;;;;;4998907;28;20179;-74
2022/05/18 10:21:20;;;;;;;1.85;0.20;;;19.60;45.80;;;;;;4981379;28;22107;-74
2022/05/18 10:24:01;;;;;;;1.35;0.15;;;19.60;46.00;;;;;;4996618;28;20061;-74
2022/05/18 10:26:39;;;;;;;3.10;0.20;;;19.60;43.30;;;;;;4999595;28;20092;-73
2022/05/18 10:29:13;;;;;;;3.30;0.30;;;19.40;43.40;;;;;;4994892;28;22113;-72
2022/05/18 10:31:43;;;;;;;2.33;0.10;;;19.30;42.40;;;;;;4998324;28;20127;-72
2022/05/18 10:34:24;;;;;;;2.35;0.10;;;19.40;43.10;;;;;;4998063;28;20049;-73
2022/05/18 10:36:57;;;;;;;1.63;0.20;;;19.50;46.00;;;;;;4996863;28;20057;-72
2022/05/18 10:39:29;;;;;;;1.75;0.55;;;19.60;42.50;;;;;;5030057;28;20052;-73
2022/05/18 10:41:57;;;;;;;;;;;19.60;41.40;;;;;;4996392;28;20561;-74
2022/05/18 10:44:32;;;;;;;2.00;0.65;;;19.60;40.60;;;;;;5011487;28;19928;-74
2022/05/18 10:47:26;;;;;;;0.30;0.10;;;19.50;39.00;;;;;;4996524;28;20107;-73
2022/05/18 10:50:34;;;;;;;0.60;0.20;;;19.40;38.40;;;;;;4974680;28;20049;-72
2022/05/18 10:53:28;;;;;;;0.60;0.20;;;19.60;41.10;;;;;;4926752;28;20058;-72
2022/05/18 10:55:58;;;;;;;0.65;0.10;;;19.70;39.60;;;;;;5010714;28;20154;-72
2022/05/18 10:58:53;;;;;;;1.10;0.10;;;19.70;38.90;;;;;;5009248;28;20053;-73
2022/05/18 11:01:47;;;;;;;0.20;0.10;;;19.70;38.80;;;;;;5003501;28;20223;-73
2022/05/18 11:04:38;;;;;;;1.73;0.40;;;19.70;39.40;;;;;;5008869;28;20045;-74
2022/05/18 11:07:07;;;;;;;1.35;0.10;;;19.80;41.10;;;;;;4987355;28;20081;-72
2022/05/18 11:09:34;;;;;;;0.98;0.10;;;19.60;38.30;;;;;;4996947;28;22767;-72
2022/05/18 11:12:35;;;;;;;0.93;0.10;;;19.50;36.50;;;;;;4994240;28;20086;-74
2022/05/18 11:15:22;;;;;;;2.83;0.10;;;19.60;38.00;;;;;;4995479;28;20053;-73
2022/05/18 11:18:04;;;;;;;0.90;0.10;;;19.70;42.60;;;;;;5008177;28;20063;-73
2022/05/18 11:20:43;;;;;;;1.20;0.10;;;19.80;42.10;;;;;;4995713;28;20053;-74
2022/05/18 11:23:36;;;;;;;0.55;0.10;;;19.90;38.50;;;;;;4995739;28;20049;-73
2022/05/18 11:26:22;;;;;;;;;;;19.90;39.60;;;;;;5026545;28;20130;-73
2022/05/18 11:29:27;;;;;;;2.20;0.10;;;19.90;37.40;;;;;;4989188;28;19928;-73
2022/05/18 11:32:26;;;;;;;0.93;0.10;;;19.90;39.80;;;;;;5011249;28;20167;-73
2022/05/18 11:35:02;;;;;;;1.95;0.10;;;19.90;36.60;;;;;;4974832;28;20511;-72
2022/05/18 11:37:41;;;;;;;0.30;0.10;;;19.90;37.70;;;;;;4992728;28;22099;-73
2022/05/18 11:40:38;;;;;;;0.22;0.10;;;20.00;36.80;;;;;;4995240;28;20041;-72
2022/05/18 11:43:28;;;;;;;1.55;0.10;;;20.00;37.90;;;;;;5010032;28;20056;-73
2022/05/18 11:46:14;;;;;;;1.35;0.10;;;20.10;38.20;;;;;;4990631;28;20040;-73
2022/05/18 11:49:03;;;;;;;0.98;0.10;;;20.10;36.50;;;;;;4993824;28;20036;-74
2022/05/18 11:51:52;;;;;;;1.42;0.10;;;20.10;35.30;;;;;;4987680;28;20279;-73
2022/05/18 11:54:28;;;;;;;1.55;0.10;;;20.10;35.90;;;;;;4999286;28;20135;-73
2022/05/18 11:57:02;;;;;;;1.42;0.10;;;20.00;35.50;;;;;;4994636;28;20573;-74
2022/05/18 12:00:07;;;;;;;1.88;0.15;;;20.10;38.70;;;;;;5012592;28;20703;-74
2022/05/18 12:03:19;;;;;;;2.15;0.10;;;20.30;37.40;;;;;;4993537;28;20164;-72
2022/05/18 12:06:28;;;;;;;0.77;0.00;;;20.30;37.50;;;;;;4980284;28;20049;-74
2022/05/18 12:09:31;;;;;;;3.67;0.10;;;20.30;33.50;;;;;;4995367;28;20557;-73
2022/05/18 12:12:01;;;;;;;0.65;0.35;;;20.20;34.40;;;;;;4925123;28;20077;-72
2022/05/18 12:14:37;;;;;;;1.40;0.10;;;20.20;34.00;;;;;;4992734;28;20056;-72
2022/05/18 12:17:58;;;;;;;0.55;0.10;;;20.20;32.10;;;;;;4996144;28;20083;-72
2022/05/18 12:20:28;;;;;;;;;;;20.30;35.70;;;;;;4928032;28;20640;-72
2022/05/18 12:22:59;;;;;;;0.68;0.10;;;20.30;32.10;;;;;;4929352;28;20393;-74
2022/05/18 12:25:29;;;;;;;5.25;0.15;;;20.30;35.50;;;;;;4966823;28;20096;-72
2022/05/18 12:28:00;;;;;;;0.90;0.10;;;20.40;34.30;;;;;;4987540;28;20052;-72
2022/05/18 12:30:29;;;;;;;0.40;0.00;;;20.40;34.30;;;;;;4977462;28;20511;-74
2022/05/18 12:32:57;;;;;;;1.35;0.00;;;20.40;34.70;;;;;;5026549;28;20049;-73
2022/05/18 12:35:59;;;;;;;0.30;0.00;;;20.40;34.10;;;;;;4992981;28;20496;-73
2022/05/18 12:38:32;;;;;;;0.63;0.20;;;20.40;34.50;;;;;;4963502;28;20048;-74
2022/05/18 12:41:04;;;;;;;2.97;0.00;;;20.30;32.30;;;;;;4992689;28;20269;-72
2022/05/18 12:43:46;;;;;;;1.13;0.10;;;20.40;34.10;;;;;;4995301;28;20052;-73
2022/05/18 12:46:16;;;;;;;;;;;20.40;31.90;;;;;;4995073;28;20619;-73
2022/05/18 12:48:49;;;;;;;2.78;0.20;;;20.40;34.80;;;;;;5010442;28;22030;-73
2022/05/18 12:51:25;;;;;;;0.30;0.10;;;20.50;34.60;;;;;;4990549;28;20048;-73
2022/05/18 12:53:56;;;;;;;1.00;0.00;;;20.50;35.00;;;;;;4990512;28;20429;-71
2022/05/18 12:56:44;;;;;;;0.52;0.10;;;20.50;35.60;;;;;;5006367;28;20511;-72
2022/05/18 12:59:24;;;;;;;1.45;0.28;;;20.60;36.00;;;;;;4986922;28;20078;-72
2022/05/18 13:02:02;;;;;;;2.67;0.00;;;20.60;35.90;;;;;;4991346;28;20044;-72
2022/05/18 13:04:46;;;;;;;0.30;0.05;;;20.60;35.30;;;;;;4984486;28;20059;-73
2022/05/18 13:07:28;;;;;;;0.70;0.10;;;20.60;34.80;;;;;;4998366;28;20080;-72
2022/05/18 13:10:16;;;;;;;0.37;0.20;;;20.70;34.50;;;;;;4979828;28;20040;-72
2022/05/18 13:12:56;;;;;;;1.92;0.17;;;20.50;32.90;;;;;;4996009;28;20354;-73
2022/05/18 13:15:38;;;;;;;1.15;0.00;;;20.60;35.00;;;;;;5010880;28;20041;-73
2022/05/18 13:18:18;;;;;;;3.58;0.05;;;20.60;34.20;;;;;;4994267;28;20041;-72
2022/05/18 13:20:53;;;;;;;0.60;0.10;;;20.70;33.70;;;;;;4970472;28;20049;-72
2022/05/18 13:23:34;;;;;;;0.50;0.00;;;20.70;33.20;;;;;;4992745;28;20123;-75
2022/05/18 13:26:12;;;;;;;1.15;0.10;;;20.70;33.30;;;;;;4992622;28;20343;-72
2022/05/18 13:28:41;;;;;;;1.88;0.00;;;20.70;34.80;;;;;;4994469;28;22151;-72
2022/05/18 13:31:09;;;;;;;1.52;0.10;;;20.80;35.30;;;;;;4996175;28;22252;-73
2022/05/18 13:34:08;;;;;;;2.13;0.10;;;20.70;33.00;;;;;;4994340;28;20045;-73
2022/05/18 13:36:38;;;;;;;0.50;0.00;;;20.60;34.10;;;;;;4982328;28;20405;-73